Time;durP1;ratioP1;P1;durP2;ratioP2;P2;SDS_P1;SDS_P2;PMS_P1;PMS_P2;Temp;Humidity;BMP_temperature;BMP_pressure;BME280_temperature;BME280_humidity;BME280_pressure;Samples;Min_cycle;Max_cycle;Signal;HPM_P1;HPM_P2
2022/10/05 00:01:27;;;;;;;12.20;7.30;;;15.00;99.90;;;;;;5055717;28;20093;-67
2022/10/05 00:04:15;;;;;;;12.60;7.78;;;15.00;99.90;;;;;;5071631;28;20485;-68
2022/10/05 00:06:49;;;;;;;10.13;6.85;;;14.90;99.90;;;;;;5071785;28;20040;-67
2022/10/05 00:09:19;;;;;;;9.40;6.55;;;15.00;99.90;;;;;;5089728;28;20074;-67
2022/10/05 00:11:46;;;;;;;10.45;7.20;;;15.00;99.90;;;;;;5072121;28;20032;-67
2022/10/05 00:14:29;;;;;;;12.20;6.95;;;14.90;99.90;;;;;;5055028;28;20043;-68
2022/10/05 00:16:55;;;;;;;12.40;6.63;;;14.90;99.90;;;;;;5071504;28;20488;-68
2022/10/05 00:19:38;;;;;;;11.68;6.50;;;14.90;99.90;;;;;;5089865;28;20036;-67
2022/10/05 00:22:21;;;;;;;11.48;6.50;;;14.90;99.90;;;;;;5089160;28;20028;-68
2022/10/05 00:24:54;;;;;;;10.48;6.35;;;14.90;99.90;;;;;;5072110;28;20153;-68
2022/10/05 00:27:23;;;;;;;9.88;6.25;;;14.90;99.90;;;;;;5090303;28;20042;-68
2022/10/05 00:29:51;;;;;;;12.80;6.95;;;14.90;99.90;;;;;;5094176;28;20136;-68
2022/10/05 00:32:16;;;;;;;10.40;6.47;;;14.90;99.90;;;;;;5075877;28;20401;-69
2022/10/05 00:34:44;;;;;;;9.20;6.18;;;14.90;99.90;;;;;;5059350;28;20044;-68
2022/10/05 00:37:10;;;;;;;11.75;6.47;;;14.90;99.90;;;;;;5086616;28;20051;-67
2022/10/05 00:39:38;;;;;;;7.88;5.85;;;14.90;99.90;;;;;;5078941;28;20040;-68
2022/10/05 00:42:06;;;;;;;11.20;6.22;;;14.90;99.90;;;;;;5095511;28;20438;-68
2022/10/05 00:44:45;;;;;;;9.45;5.78;;;14.90;99.90;;;;;;5076372;28;20040;-68
2022/10/05 00:47:48;;;;;;;10.95;5.72;;;14.90;99.90;;;;;;5075836;28;20566;-68
2022/10/05 00:50:32;;;;;;;8.90;5.55;;;14.90;99.90;;;;;;5100628;28;20500;-68
2022/10/05 00:53:16;;;;;;;8.55;5.88;;;14.90;99.90;;;;;;5078042;28;20048;-68
2022/10/05 00:55:58;;;;;;;8.75;5.75;;;14.90;99.90;;;;;;5078290;28;20046;-68
2022/10/05 00:58:34;;;;;;;8.70;5.85;;;14.90;99.90;;;;;;5095096;28;20495;-68
2022/10/05 01:01:23;;;;;;;10.15;6.32;;;14.90;99.90;;;;;;5078141;28;20036;-68
2022/10/05 01:04:17;;;;;;;8.75;5.80;;;14.90;99.90;;;;;;5080209;28;20039;-68
2022/10/05 01:07:03;;;;;;;8.50;5.82;;;14.90;99.90;;;;;;5028097;28;20420;-68
2022/10/05 01:09:55;;;;;;;9.55;6.15;;;14.90;99.90;;;;;;5089871;28;20121;-68
2022/10/05 01:12:36;;;;;;;9.15;5.93;;;14.90;99.90;;;;;;5075314;28;20044;-67
2022/10/05 01:15:17;;;;;;;8.48;6.30;;;14.90;99.90;;;;;;5081351;28;20510;-68
2022/10/05 01:17:59;;;;;;;12.43;6.97;;;14.90;99.90;;;;;;5094615;28;20411;-68
2022/10/05 01:20:31;;;;;;;9.32;6.65;;;14.90;99.90;;;;;;5088081;28;20044;-68
2022/10/05 01:23:33;;;;;;;9.82;6.80;;;14.90;99.90;;;;;;5066781;28;20394;-68
2022/10/05 01:26:20;;;;;;;12.95;6.70;;;14.90;99.90;;;;;;5112904;28;20119;-68
2022/10/05 01:28:53;;;;;;;17.02;7.90;;;14.80;99.90;;;;;;5094407;28;20126;-68
2022/10/05 01:31:18;;;;;;;;;;;14.80;99.90;;;;;;5077899;28;20555;-68
2022/10/05 01:34:20;;;;;;;12.77;7.45;;;14.90;99.90;;;;;;5094359;28;20010;-68
2022/10/05 01:37:03;;;;;;;10.33;7.60;;;14.80;99.90;;;;;;5071836;28;20127;-67
2022/10/05 01:40:00;;;;;;;12.02;7.78;;;14.80;99.90;;;;;;5071672;28;20052;-68
2022/10/05 01:42:52;;;;;;;10.68;7.65;;;14.80;99.90;;;;;;5089635;28;20493;-68
2022/10/05 01:45:39;;;;;;;12.73;7.88;;;14.80;99.90;;;;;;5049719;28;20048;-68
2022/10/05 01:48:22;;;;;;;16.13;7.93;;;14.80;99.90;;;;;;5054629;28;20036;-68
2022/10/05 01:50:56;;;;;;;;;;;14.80;99.90;;;;;;5086677;28;20614;-68
2022/10/05 01:53:31;;;;;;;13.95;8.63;;;14.80;99.90;;;;;;5066842;28;20305;-68
2022/10/05 01:56:06;;;;;;;12.38;8.63;;;14.80;99.90;;;;;;5073242;28;20032;-68
2022/10/05 01:59:02;;;;;;;11.35;8.02;;;14.80;99.90;;;;;;5072595;28;20075;-68
2022/10/05 02:01:48;;;;;;;12.60;8.63;;;14.80;99.90;;;;;;5054910;28;20040;-68
2022/10/05 02:04:20;;;;;;;12.18;8.25;;;14.80;99.90;;;;;;5090018;28;20121;-68
2022/10/05 02:06:49;;;;;;;10.75;8.68;;;14.70;99.90;;;;;;5089298;28;20542;-68
2022/10/05 02:09:25;;;;;;;15.60;8.20;;;14.70;99.90;;;;;;5090296;28;20074;-68
2022/10/05 02:11:59;;;;;;;13.45;8.30;;;14.70;99.90;;;;;;5090682;28;20081;-68
2022/10/05 02:14:37;;;;;;;14.60;8.40;;;14.70;99.90;;;;;;5082084;28;20489;-68
2022/10/05 02:17:11;;;;;;;11.80;7.25;;;14.70;99.90;;;;;;5054238;28;20051;-68
2022/10/05 02:19:56;;;;;;;9.93;7.78;;;14.70;99.90;;;;;;5070742;28;20044;-68
2022/10/05 02:22:31;;;;;;;14.07;8.63;;;14.70;99.90;;;;;;5072548;28;20033;-68
2022/10/05 02:25:04;;;;;;;10.32;7.15;;;14.70;99.90;;;;;;5071258;28;20131;-68
2022/10/05 02:27:31;;;;;;;;;;;14.70;99.90;;;;;;5071173;28;20505;-68
2022/10/05 02:30:03;;;;;;;9.52;7.30;;;14.70;99.90;;;;;;5084008;28;20297;-68
2022/10/05 02:32:41;;;;;;;17.02;7.00;;;14.70;99.90;;;;;;5089544;28;20612;-68
2022/10/05 02:35:14;;;;;;;12.02;7.43;;;14.70;99.90;;;;;;5089816;28;20059;-68
2022/10/05 02:37:53;;;;;;;15.13;7.93;;;14.70;99.90;;;;;;5092929;28;20117;-68
2022/10/05 02:40:31;;;;;;;13.52;7.55;;;14.70;99.90;;;;;;5076248;28;20036;-68
2022/10/05 02:43:09;;;;;;;11.75;8.00;;;14.60;99.90;;;;;;5092717;28;20051;-68
2022/10/05 02:46:03;;;;;;;13.80;7.03;;;14.60;99.90;;;;;;5091964;28;20515;-68
2022/10/05 02:48:41;;;;;;;16.23;7.82;;;14.60;99.90;;;;;;5054327;28;20422;-68
2022/10/05 02:51:41;;;;;;;11.57;7.07;;;14.50;99.90;;;;;;5070024;28;20040;-68
2022/10/05 02:54:16;;;;;;;8.68;7.13;;;14.50;99.90;;;;;;5059888;28;20082;-68
2022/10/05 02:57:04;;;;;;;12.55;7.07;;;14.50;99.90;;;;;;5091701;28;20052;-68
2022/10/05 02:59:54;;;;;;;10.93;6.93;;;14.50;99.90;;;;;;5093089;28;20103;-68
2022/10/05 03:02:34;;;;;;;11.70;7.85;;;14.50;99.90;;;;;;5092808;28;20110;-68
2022/10/05 03:05:45;;;;;;;10.23;7.03;;;14.50;99.90;;;;;;5073661;28;20031;-68
2022/10/05 03:08:34;;;;;;;9.40;6.78;;;14.50;99.90;;;;;;5036048;28;20051;-68
2022/10/05 03:11:21;;;;;;;12.18;7.50;;;14.50;99.90;;;;;;5073387;28;20061;-68
2022/10/05 03:14:15;;;;;;;13.70;7.18;;;14.50;99.90;;;;;;5073287;28;20591;-68
2022/10/05 03:17:04;;;;;;;10.40;6.75;;;14.50;99.90;;;;;;5100956;28;20044;-67
2022/10/05 03:19:48;;;;;;;9.15;6.55;;;14.50;99.90;;;;;;5110508;28;20519;-68
2022/10/05 03:22:37;;;;;;;11.65;7.10;;;14.50;99.90;;;;;;5110702;28;20031;-68
2022/10/05 03:25:22;;;;;;;11.48;7.00;;;14.50;99.90;;;;;;5092484;28;20036;-69
2022/10/05 03:28:15;;;;;;;9.65;7.25;;;14.50;99.90;;;;;;5110430;28;20040;-68
2022/10/05 03:30:51;;;;;;;8.68;6.88;;;14.50;99.90;;;;;;5072865;28;20076;-68
2022/10/05 03:33:44;;;;;;;10.52;6.65;;;14.40;99.90;;;;;;5108477;28;20039;-68
2022/10/05 03:36:10;;;;;;;9.38;7.18;;;14.40;99.90;;;;;;5091806;28;20504;-68
2022/10/05 03:38:51;;;;;;;12.55;7.22;;;14.40;99.90;;;;;;5091726;28;20059;-68
2022/10/05 03:41:36;;;;;;;9.85;6.70;;;14.30;99.90;;;;;;5092173;28;20035;-67
2022/10/05 03:44:08;;;;;;;10.98;7.65;;;14.30;99.90;;;;;;5064105;28;20040;-68
2022/10/05 03:46:52;;;;;;;11.18;7.05;;;14.30;99.90;;;;;;5110071;28;20047;-68
2022/10/05 03:49:45;;;;;;;12.00;8.05;;;14.30;99.90;;;;;;5091665;28;20508;-68
2022/10/05 03:52:28;;;;;;;11.27;7.80;;;14.30;99.90;;;;;;5091809;28;20059;-68
2022/10/05 03:55:39;;;;;;;10.27;7.40;;;14.30;99.90;;;;;;5091802;28;20035;-68
2022/10/05 03:58:13;;;;;;;12.07;7.13;;;14.20;99.90;;;;;;4974889;28;20038;-68
2022/10/05 04:00:42;;;;;;;12.20;7.40;;;14.20;99.90;;;;;;5007187;28;20033;-68
2022/10/05 04:03:11;;;;;;;12.23;7.55;;;14.20;99.90;;;;;;5045940;28;20404;-68
2022/10/05 04:05:46;;;;;;;10.68;8.40;;;14.20;99.90;;;;;;5091777;28;20479;-68
2022/10/05 04:08:32;;;;;;;12.57;7.53;;;14.20;99.90;;;;;;5074465;28;20487;-68
2022/10/05 04:11:04;;;;;;;12.30;7.70;;;14.20;99.90;;;;;;5072523;28;20123;-68
2022/10/05 04:13:38;;;;;;;12.07;8.45;;;14.20;99.90;;;;;;5072637;28;20043;-68
2022/10/05 04:16:12;;;;;;;12.15;8.77;;;14.20;99.90;;;;;;5056353;28;20062;-68
2022/10/05 04:18:55;;;;;;;12.55;8.35;;;14.20;99.90;;;;;;5072146;28;20059;-68
2022/10/05 04:21:33;;;;;;;12.77;8.38;;;14.20;99.90;;;;;;5072135;28;20060;-69
2022/10/05 04:24:31;;;;;;;16.33;9.18;;;14.20;99.90;;;;;;5072305;28;20040;-69
2022/10/05 04:27:02;;;;;;;11.32;8.68;;;14.20;99.90;;;;;;5072455;28;20040;-68
2022/10/05 04:29:27;;;;;;;12.75;8.55;;;14.20;99.90;;;;;;5074031;28;20040;-68
2022/10/05 04:32:15;;;;;;;13.05;9.23;;;14.20;99.90;;;;;;5091105;28;20496;-68
2022/10/05 04:35:05;;;;;;;14.30;8.50;;;14.20;99.90;;;;;;5072287;28;20118;-68
2022/10/05 04:37:46;;;;;;;12.25;8.80;;;14.20;99.90;;;;;;5109254;28;20083;-68
2022/10/05 04:40:27;;;;;;;16.48;8.98;;;14.20;99.90;;;;;;5091297;28;20461;-68
2022/10/05 04:43:23;;;;;;;14.27;9.63;;;14.20;99.90;;;;;;5106667;28;20415;-68
2022/10/05 04:46:04;;;;;;;11.80;9.25;;;14.20;99.90;;;;;;5090413;28;20047;-68
2022/10/05 04:48:39;;;;;;;12.98;8.98;;;14.20;99.90;;;;;;5071898;28;20040;-68
2022/10/05 04:51:26;;;;;;;11.48;9.05;;;14.20;99.90;;;;;;5091451;28;20036;-68
2022/10/05 04:54:04;;;;;;;14.52;9.30;;;14.10;99.90;;;;;;5092542;28;20412;-68
2022/10/05 04:56:38;;;;;;;15.05;9.23;;;14.10;99.90;;;;;;5062997;28;20044;-67
2022/10/05 04:59:42;;;;;;;15.40;9.68;;;14.10;99.90;;;;;;5071953;28;20196;-68
2022/10/05 05:02:38;;;;;;;14.60;9.95;;;14.00;99.90;;;;;;5084630;28;20102;-68
2022/10/05 05:05:21;;;;;;;18.42;9.95;;;14.00;99.90;;;;;;5090252;28;20476;-68
2022/10/05 05:08:23;;;;;;;15.88;9.48;;;14.00;99.90;;;;;;5071494;28;20036;-68
2022/10/05 05:11:05;;;;;;;14.07;10.60;;;13.90;99.90;;;;;;5042926;28;20058;-68
2022/10/05 05:13:58;;;;;;;15.90;10.88;;;13.90;99.90;;;;;;5072654;28;20056;-68
2022/10/05 05:16:23;;;;;;;;;;;13.90;99.90;;;;;;5112882;28;20416;-68
2022/10/05 05:19:11;;;;;;;14.57;10.95;;;13.80;99.90;;;;;;5093293;28;19925;-68
2022/10/05 05:22:01;;;;;;;14.50;10.45;;;13.80;99.90;;;;;;5075427;28;20040;-68
2022/10/05 05:25:14;;;;;;;16.65;10.90;;;13.80;99.90;;;;;;5111057;28;20119;-68
2022/10/05 05:27:47;;;;;;;15.77;10.80;;;13.80;99.90;;;;;;5066826;28;20101;-68
2022/10/05 05:30:20;;;;;;;15.30;11.13;;;13.70;99.90;;;;;;5077868;28;20051;-68
2022/10/05 05:33:01;;;;;;;15.73;10.57;;;13.70;99.90;;;;;;5093936;28;20071;-68
2022/10/05 05:36:09;;;;;;;17.42;11.18;;;13.70;99.90;;;;;;5094612;28;20040;-68
2022/10/05 05:38:53;;;;;;;23.15;11.43;;;13.60;99.90;;;;;;5092547;28;20054;-68
2022/10/05 05:41:33;;;;;;;16.73;11.27;;;13.70;99.90;;;;;;5094502;28;20101;-68
2022/10/05 05:44:24;;;;;;;17.10;11.15;;;13.70;99.90;;;;;;5112320;28;20044;-68
2022/10/05 05:47:02;;;;;;;19.73;11.20;;;13.70;99.90;;;;;;5093911;28;20403;-68
2022/10/05 05:50:04;;;;;;;20.13;12.13;;;13.70;99.90;;;;;;5076906;28;20075;-68
2022/10/05 05:52:37;;;;;;;18.63;11.80;;;13.70;99.90;;;;;;5092952;28;20047;-68
2022/10/05 05:55:26;;;;;;;15.98;11.63;;;13.70;99.90;;;;;;5093573;28;20504;-68
2022/10/05 05:58:13;;;;;;;16.77;11.73;;;13.70;99.90;;;;;;5076447;28;20044;-68
2022/10/05 06:01:00;;;;;;;16.55;12.15;;;13.70;99.90;;;;;;5093926;28;20341;-68
2022/10/05 06:03:43;;;;;;;21.45;12.00;;;13.70;99.90;;;;;;5093045;28;20040;-68
2022/10/05 06:06:13;;;;;;;16.52;11.07;;;13.70;99.90;;;;;;5093471;28;20044;-68
2022/10/05 06:08:48;;;;;;;19.02;11.75;;;13.70;99.90;;;;;;5066066;28;20086;-68
2022/10/05 06:11:17;;;;;;;16.40;11.20;;;13.70;99.90;;;;;;5106121;27;20065;-68
2022/10/05 06:13:44;;;;;;;17.33;11.95;;;13.80;99.90;;;;;;5074541;28;20032;-69
2022/10/05 06:16:44;;;;;;;17.52;11.18;;;13.80;99.90;;;;;;5093448;28;20609;-68
2022/10/05 06:19:13;;;;;;;19.48;12.15;;;13.80;99.90;;;;;;5010215;28;20048;-68
2022/10/05 06:21:56;;;;;;;15.52;11.13;;;13.80;99.90;;;;;;5074142;28;20044;-68
2022/10/05 06:24:25;;;;;;;17.08;11.88;;;13.80;99.90;;;;;;5073356;28;20043;-69
2022/10/05 06:27:04;;;;;;;16.02;11.02;;;13.90;99.90;;;;;;5056456;28;20036;-68
2022/10/05 06:30:04;;;;;;;20.13;11.45;;;13.80;99.90;;;;;;5071945;28;20493;-69
2022/10/05 06:32:46;;;;;;;16.40;11.13;;;13.90;99.90;;;;;;5074826;28;20507;-68
2022/10/05 06:35:43;;;;;;;20.10;11.10;;;13.90;99.90;;;;;;5073932;28;20062;-68
2022/10/05 06:38:27;;;;;;;17.88;10.30;;;13.90;99.90;;;;;;5070065;28;20052;-68
2022/10/05 06:41:05;;;;;;;18.85;11.13;;;13.90;99.90;;;;;;5089917;28;20040;-68
2022/10/05 06:43:42;;;;;;;17.23;11.02;;;13.90;99.90;;;;;;5083347;28;20038;-68
2022/10/05 06:46:38;;;;;;;18.80;11.48;;;13.90;99.90;;;;;;5089603;28;20077;-68
2022/10/05 06:49:22;;;;;;;16.08;11.20;;;13.90;99.90;;;;;;5069110;28;20079;-69
2022/10/05 06:51:51;;;;;;;19.38;11.73;;;14.00;99.90;;;;;;5072492;28;20039;-69
2022/10/05 06:54:31;;;;;;;16.48;10.73;;;14.00;99.90;;;;;;5089331;28;20072;-68
2022/10/05 06:57:22;;;;;;;14.68;10.77;;;14.00;99.90;;;;;;5072371;28;20032;-69
2022/10/05 07:00:18;;;;;;;14.75;10.73;;;14.10;99.90;;;;;;5089197;28;20036;-69
2022/10/05 07:02:44;;;;;;;13.20;9.88;;;14.10;99.90;;;;;;5057886;28;20048;-67
2022/10/05 07:05:46;;;;;;;11.90;10.00;;;14.10;99.90;;;;;;5089373;28;20063;-69
2022/10/05 07:08:27;;;;;;;14.85;10.07;;;14.10;99.90;;;;;;5089209;28;20040;-68
2022/10/05 07:11:19;;;;;;;13.30;9.38;;;14.10;99.90;;;;;;5089497;28;20070;-68
2022/10/05 07:14:02;;;;;;;15.25;10.25;;;14.10;99.90;;;;;;5071955;28;20130;-69
2022/10/05 07:16:49;;;;;;;16.88;9.85;;;14.20;99.90;;;;;;5088736;28;20051;-68
2022/10/05 07:19:41;;;;;;;12.15;9.13;;;14.20;99.90;;;;;;5088647;28;20028;-68
2022/10/05 07:22:33;;;;;;;20.23;10.63;;;14.20;99.90;;;;;;5089153;28;20039;-68
2022/10/05 07:25:15;;;;;;;12.10;9.50;;;14.20;99.90;;;;;;5059489;28;20044;-68
2022/10/05 07:27:56;;;;;;;15.52;9.43;;;14.30;99.90;;;;;;5087106;28;20040;-69
2022/10/05 07:30:23;;;;;;;15.65;9.88;;;14.30;99.90;;;;;;5089979;28;20040;-68
2022/10/05 07:33:12;;;;;;;14.38;9.27;;;14.30;99.90;;;;;;5072255;28;20051;-68
2022/10/05 07:38:58;;;;;;;13.75;8.90;;;14.40;99.90;;;;;;5091385;28;20067;-69
2022/10/05 07:41:43;;;;;;;14.77;9.18;;;14.30;99.90;;;;;;5091737;28;20128;-68
2022/10/05 07:44:19;;;;;;;11.63;8.65;;;14.30;99.90;;;;;;5075977;28;20038;-69
2022/10/05 07:46:50;;;;;;;13.65;9.55;;;14.30;99.90;;;;;;5092039;28;20111;-68
2022/10/05 07:49:28;;;;;;;16.48;9.45;;;14.40;99.90;;;;;;5109506;28;20032;-68
2022/10/05 07:52:10;;;;;;;14.23;10.18;;;14.40;99.90;;;;;;5075044;28;20071;-69
2022/10/05 07:54:35;;;;;;;14.95;9.95;;;14.40;99.90;;;;;;5075029;28;20369;-69
2022/10/05 07:57:40;;;;;;;14.50;9.23;;;14.50;99.90;;;;;;5091543;28;20070;-69
2022/10/05 08:00:14;;;;;;;14.25;10.07;;;14.50;99.90;;;;;;5086526;28;20545;-68
2022/10/05 08:02:44;;;;;;;12.50;9.65;;;14.50;99.90;;;;;;5074539;28;20036;-69
2022/10/05 08:05:28;;;;;;;16.55;9.65;;;14.50;99.90;;;;;;5091183;28;20036;-69
2022/10/05 08:08:18;;;;;;;13.45;9.57;;;14.50;99.90;;;;;;5067418;28;20077;-69
2022/10/05 08:11:06;;;;;;;13.75;9.27;;;14.60;99.90;;;;;;5091368;28;20069;-69
2022/10/05 08:14:10;;;;;;;13.50;10.38;;;14.60;99.90;;;;;;5074445;28;20054;-68
2022/10/05 08:16:37;;;;;;;12.65;9.35;;;14.60;99.90;;;;;;4990424;28;20045;-68
2022/10/05 08:19:17;;;;;;;12.38;9.15;;;14.70;99.90;;;;;;5070626;28;20047;-68
2022/10/05 08:21:54;;;;;;;10.13;8.57;;;14.70;99.90;;;;;;5072457;28;20044;-68
2022/10/05 08:24:36;;;;;;;12.48;8.95;;;14.70;99.90;;;;;;5072249;28;20036;-68
2022/10/05 08:27:46;;;;;;;10.80;8.32;;;14.80;99.90;;;;;;5072027;28;20096;-69
2022/10/05 08:30:14;;;;;;;13.48;8.85;;;14.80;99.90;;;;;;5090945;28;20080;-68
2022/10/05 08:32:46;;;;;;;14.68;8.50;;;14.90;99.90;;;;;;5091254;28;20204;-68
2022/10/05 08:35:21;;;;;;;10.20;8.18;;;14.90;99.90;;;;;;5091254;28;20035;-69
2022/10/05 08:37:48;;;;;;;10.00;8.20;;;14.90;99.90;;;;;;5090404;28;20055;-69
2022/10/05 08:40:32;;;;;;;13.20;8.10;;;14.90;99.90;;;;;;5090986;28;20035;-69
2022/10/05 08:43:40;;;;;;;21.85;8.27;;;15.00;99.90;;;;;;5090984;28;20031;-69
2022/10/05 08:46:24;;;;;;;9.63;7.50;;;15.00;99.90;;;;;;5109392;28;20032;-69
2022/10/05 08:49:08;;;;;;;10.02;7.75;;;15.00;99.90;;;;;;5091659;28;20507;-69
2022/10/05 08:52:10;;;;;;;13.90;7.72;;;15.10;99.90;;;;;;5095136;28;20492;-69
2022/10/05 08:54:55;;;;;;;7.80;6.97;;;15.20;99.90;;;;;;5078197;28;20051;-68
2022/10/05 08:57:48;;;;;;;10.43;8.02;;;15.20;99.90;;;;;;5094847;28;20067;-69
2022/10/05 09:00:22;;;;;;;;;;;15.30;99.90;;;;;;5078831;28;20096;-69
2022/10/05 09:03:19;;;;;;;11.30;7.00;;;15.30;99.90;;;;;;5094792;28;19924;-68
2022/10/05 09:06:13;;;;;;;8.18;7.13;;;15.40;99.90;;;;;;5113087;28;20519;-69
2022/10/05 09:08:45;;;;;;;9.85;6.93;;;15.40;99.90;;;;;;5112855;28;20511;-70
2022/10/05 09:11:44;;;;;;;7.20;6.47;;;15.40;99.90;;;;;;5095227;28;20433;-69
2022/10/05 09:14:39;;;;;;;8.70;6.07;;;15.50;99.90;;;;;;5094392;28;20074;-69
2022/10/05 09:17:31;;;;;;;9.60;6.38;;;15.50;99.90;;;;;;5094342;28;20039;-69
2022/10/05 09:20:16;;;;;;;7.18;6.18;;;15.60;99.90;;;;;;5049350;28;20048;-69
2022/10/05 09:23:07;;;;;;;7.25;6.13;;;15.60;99.90;;;;;;5094704;28;20035;-68
2022/10/05 09:25:58;;;;;;;6.60;5.70;;;15.70;99.90;;;;;;5074344;28;20079;-69
2022/10/05 09:28:27;;;;;;;10.27;5.10;;;15.70;99.90;;;;;;5093395;28;20471;-69
2022/10/05 09:31:13;;;;;;;7.30;5.53;;;15.70;99.90;;;;;;5075267;28;20044;-68
2022/10/05 09:33:55;;;;;;;7.05;5.40;;;15.70;99.90;;;;;;5075167;28;20101;-68
2022/10/05 09:36:35;;;;;;;6.45;5.25;;;15.70;99.90;;;;;;5075254;28;20493;-68
2022/10/05 09:39:30;;;;;;;7.70;5.43;;;15.70;99.90;;;;;;5074318;28;20113;-68
2022/10/05 09:42:26;;;;;;;6.63;5.57;;;15.70;99.90;;;;;;5092496;28;20036;-69
2022/10/05 09:45:10;;;;;;;8.40;5.43;;;15.70;99.90;;;;;;5074563;28;20036;-69
2022/10/05 09:47:44;;;;;;;7.70;5.20;;;15.70;99.90;;;;;;5074311;28;20058;-68
2022/10/05 09:50:31;;;;;;;7.63;4.82;;;15.70;99.90;;;;;;5092265;28;20500;-68
2022/10/05 09:53:46;;;;;;;7.07;5.25;;;15.80;99.90;;;;;;5057781;28;20043;-68
2022/10/05 09:56:33;;;;;;;9.07;5.25;;;15.80;99.90;;;;;;5074540;28;20040;-69
2022/10/05 09:59:20;;;;;;;7.20;5.35;;;15.80;99.90;;;;;;5057588;28;20036;-69
2022/10/05 10:02:15;;;;;;;10.98;5.60;;;15.80;99.90;;;;;;5057549;28;20546;-69
2022/10/05 10:05:18;;;;;;;9.23;6.13;;;15.80;99.90;;;;;;5074169;28;20040;-69
2022/10/05 10:07:56;;;;;;;8.27;5.68;;;15.80;99.90;;;;;;5073013;28;20039;-69
2022/10/05 10:10:40;;;;;;;7.78;5.65;;;15.70;99.90;;;;;;5073921;28;20492;-69
2022/10/05 10:13:09;;;;;;;6.53;4.70;;;15.80;99.90;;;;;;5072831;28;20037;-69
2022/10/05 10:16:09;;;;;;;6.43;5.55;;;15.80;99.90;;;;;;5057079;28;20093;-69
2022/10/05 10:18:38;;;;;;;6.85;5.75;;;15.80;99.90;;;;;;5051651;28;20102;-69
2022/10/05 10:21:42;;;;;;;6.50;5.72;;;15.80;99.90;;;;;;5092039;28;20040;-69
2022/10/05 10:24:18;;;;;;;7.63;5.90;;;15.80;99.90;;;;;;5073596;28;20120;-69
2022/10/05 10:27:08;;;;;;;8.15;6.30;;;15.80;99.90;;;;;;5056836;28;20044;-69
2022/10/05 10:29:49;;;;;;;9.95;5.90;;;15.80;99.90;;;;;;5072498;28;20067;-69
2022/10/05 10:32:52;;;;;;;7.65;5.55;;;15.80;99.90;;;;;;5073170;28;20488;-68
2022/10/05 10:35:29;;;;;;;7.15;5.43;;;15.90;99.90;;;;;;5089974;28;20043;-69
2022/10/05 10:37:58;;;;;;;8.73;5.57;;;15.90;99.90;;;;;;5071009;28;20395;-69
2022/10/05 10:40:27;;;;;;;6.55;5.47;;;15.90;99.90;;;;;;5070564;28;20136;-69
2022/10/05 10:43:04;;;;;;;7.32;5.60;;;15.90;99.90;;;;;;5088504;28;20086;-69
2022/10/05 10:45:53;;;;;;;8.90;5.10;;;16.00;99.90;;;;;;5089447;28;20044;-69
2022/10/05 10:48:18;;;;;;;7.95;5.57;;;16.00;99.90;;;;;;5089379;28;20427;-68
2022/10/05 10:51:09;;;;;;;5.43;4.93;;;16.00;99.90;;;;;;5089147;28;20043;-69
2022/10/05 10:53:38;;;;;;;7.38;5.32;;;16.00;99.90;;;;;;5089450;28;20040;-69
2022/10/05 10:56:22;;;;;;;5.75;5.25;;;16.00;99.90;;;;;;5072923;28;20369;-69
2022/10/05 10:58:48;;;;;;;4.95;4.38;;;16.10;99.90;;;;;;5075427;28;20506;-69
2022/10/05 11:01:51;;;;;;;5.07;4.57;;;16.10;99.90;;;;;;5070227;28;20070;-70
2022/10/05 11:04:52;;;;;;;5.97;4.72;;;16.10;99.90;;;;;;5072780;28;20424;-69
2022/10/05 11:07:37;;;;;;;6.22;3.72;;;16.20;99.90;;;;;;5087949;28;20032;-69
2022/10/05 11:10:08;;;;;;;4.88;3.67;;;16.30;99.90;;;;;;5072990;28;20071;-69
2022/10/05 11:12:47;;;;;;;7.55;4.43;;;16.30;99.90;;;;;;5070439;28;20083;-69
2022/10/05 11:15:49;;;;;;;6.15;4.00;;;16.30;99.90;;;;;;5070403;28;20036;-69
2022/10/05 11:18:52;;;;;;;4.90;3.78;;;16.40;99.90;;;;;;5070826;28;20341;-68
2022/10/05 11:21:29;;;;;;;6.53;3.83;;;16.40;99.90;;;;;;5071442;28;20488;-69
2022/10/05 11:24:37;;;;;;;5.35;3.90;;;16.50;99.90;;;;;;5069148;28;20060;-69
2022/10/05 11:27:40;;;;;;;5.80;4.10;;;16.50;99.90;;;;;;5072356;28;20091;-69
2022/10/05 11:30:37;;;;;;;7.15;4.07;;;16.60;99.90;;;;;;5069693;28;20062;-69
2022/10/05 11:33:25;;;;;;;4.70;4.20;;;16.60;99.90;;;;;;5069251;28;20590;-69
2022/10/05 11:36:03;;;;;;;5.05;4.03;;;16.70;99.90;;;;;;5069529;28;20554;-69
2022/10/05 11:39:00;;;;;;;6.57;4.72;;;16.70;99.90;;;;;;5052606;28;20123;-69
2022/10/05 11:41:41;;;;;;;5.80;4.20;;;16.80;99.90;;;;;;5070439;28;20032;-69
2022/10/05 11:44:28;;;;;;;6.90;5.18;;;16.80;99.90;;;;;;5069233;28;20040;-69
2022/10/05 11:47:02;;;;;;;7.20;4.28;;;16.90;99.90;;;;;;5052941;28;20127;-69
2022/10/05 11:49:41;;;;;;;5.82;4.15;;;16.90;99.90;;;;;;5069083;28;20139;-69
2022/10/05 11:52:32;;;;;;;7.05;4.30;;;17.00;99.90;;;;;;5063638;28;20071;-68
2022/10/05 11:55:16;;;;;;;7.07;4.55;;;17.00;99.90;;;;;;5087878;28;20101;-69
2022/10/05 11:57:53;;;;;;;6.55;4.20;;;17.10;99.90;;;;;;5087977;28;20054;-69
2022/10/05 12:00:35;;;;;;;5.40;3.70;;;17.10;99.90;;;;;;5088192;28;20654;-69
2022/10/05 12:03:08;;;;;;;6.57;4.70;;;17.10;99.90;;;;;;5087891;28;20036;-69
2022/10/05 12:05:48;;;;;;;7.00;4.18;;;17.00;99.90;;;;;;5068935;28;20490;-69
2022/10/05 12:08:56;;;;;;;5.70;4.55;;;17.00;99.90;;;;;;5069230;28;20413;-69
2022/10/05 12:11:35;;;;;;;7.20;4.20;;;17.00;99.90;;;;;;5069138;28;20048;-69
2022/10/05 12:14:23;;;;;;;4.15;3.72;;;17.00;99.90;;;;;;5069106;28;20098;-69
2022/10/05 12:17:02;;;;;;;5.70;4.60;;;16.90;99.90;;;;;;5055833;28;20050;-70
2022/10/05 12:19:35;;;;;;;5.85;3.83;;;16.90;99.90;;;;;;5070741;28;20039;-69
2022/10/05 12:22:19;;;;;;;8.60;4.20;;;16.90;99.90;;;;;;5070978;28;20043;-69
2022/10/05 12:25:15;;;;;;;4.18;3.42;;;16.90;99.90;;;;;;5087726;28;20035;-70
2022/10/05 12:27:45;;;;;;;6.07;3.97;;;16.90;99.90;;;;;;5087801;28;20035;-69
2022/10/05 12:30:29;;;;;;;4.75;3.47;;;16.90;99.90;;;;;;5089057;28;20414;-69
2022/10/05 12:33:27;;;;;;;6.65;3.70;;;16.90;99.90;;;;;;5088612;28;20044;-69
2022/10/05 12:36:26;;;;;;;5.80;3.50;;;16.90;99.90;;;;;;5049483;28;20059;-69
2022/10/05 12:39:14;;;;;;;6.68;3.63;;;16.90;99.90;;;;;;5045216;28;20394;-69
2022/10/05 12:42:06;;;;;;;4.78;3.30;;;16.90;99.90;;;;;;5088185;28;20495;-69
2022/10/05 12:44:59;;;;;;;4.50;3.27;;;16.90;99.90;;;;;;5086290;28;20047;-69
2022/10/05 12:47:34;;;;;;;6.90;3.90;;;16.90;99.90;;;;;;5074211;28;20115;-69
2022/10/05 12:50:11;;;;;;;6.18;3.40;;;16.90;99.90;;;;;;5109017;28;20048;-69
2022/10/05 12:53:04;;;;;;;7.75;3.65;;;16.90;99.90;;;;;;5091027;28;20042;-68
2022/10/05 12:55:38;;;;;;;5.07;3.30;;;17.00;99.90;;;;;;5091093;28;20034;-69
2022/10/05 12:58:16;;;;;;;5.05;3.13;;;17.00;99.90;;;;;;5090771;28;20039;-69
2022/10/05 13:01:03;;;;;;;6.32;3.35;;;17.00;99.90;;;;;;5090627;28;20469;-69
2022/10/05 13:03:38;;;;;;;3.80;3.00;;;17.00;99.90;;;;;;5090791;28;20392;-69
2022/10/05 13:06:22;;;;;;;8.35;3.70;;;17.00;99.90;;;;;;5090880;28;20122;-70
2022/10/05 13:09:14;;;;;;;4.75;3.03;;;17.00;99.90;;;;;;5090679;28;20122;-69
2022/10/05 13:11:47;;;;;;;7.85;3.72;;;17.10;99.90;;;;;;5106357;28;20772;-69
2022/10/05 13:14:36;;;;;;;5.75;3.53;;;17.10;99.90;;;;;;5071384;28;20040;-70
2022/10/05 13:17:11;;;;;;;6.13;3.58;;;17.20;99.90;;;;;;5086084;28;20039;-69
2022/10/05 13:19:40;;;;;;;6.20;3.05;;;17.20;99.90;;;;;;5090350;28;20492;-70
2022/10/05 13:22:14;;;;;;;5.95;3.22;;;17.30;99.90;;;;;;5090873;28;20036;-69
2022/10/05 13:25:02;;;;;;;4.78;3.30;;;17.30;99.90;;;;;;5073765;28;20109;-69
2022/10/05 13:27:30;;;;;;;4.88;3.53;;;17.30;99.90;;;;;;5090953;28;20487;-69
2022/10/05 13:30:12;;;;;;;5.78;3.30;;;17.30;99.90;;;;;;5073793;28;20316;-70
2022/10/05 13:32:46;;;;;;;3.97;3.10;;;17.40;99.90;;;;;;5073845;28;20043;-69
2022/10/05 13:35:31;;;;;;;5.72;3.25;;;17.40;99.90;;;;;;5092355;28;20051;-69
2022/10/05 13:38:02;;;;;;;5.85;3.25;;;17.40;99.90;;;;;;5093734;28;20307;-70
2022/10/05 13:40:47;;;;;;;5.00;3.07;;;17.40;99.90;;;;;;5094018;28;20043;-69
2022/10/05 13:43:25;;;;;;;5.53;3.47;;;17.40;99.90;;;;;;5093692;28;20036;-69
2022/10/05 13:46:24;;;;;;;5.72;2.95;;;17.50;99.90;;;;;;5093959;28;20498;-69
2022/10/05 13:49:07;;;;;;;5.68;3.53;;;17.50;99.90;;;;;;5077076;28;20122;-69
2022/10/05 13:51:43;;;;;;;5.35;2.75;;;17.60;99.90;;;;;;5094013;28;20079;-69
2022/10/05 13:54:21;;;;;;;3.63;2.90;;;17.60;99.90;;;;;;5076633;28;20443;-69
2022/10/05 13:57:04;;;;;;;4.40;3.05;;;17.60;99.90;;;;;;5093772;28;20054;-69
2022/10/05 13:59:42;;;;;;;5.40;3.03;;;17.70;99.90;;;;;;5093861;28;20027;-69
2022/10/05 14:02:14;;;;;;;5.80;3.47;;;17.70;99.90;;;;;;5093596;28;20039;-69
2022/10/05 14:04:59;;;;;;;4.57;2.87;;;17.70;99.90;;;;;;5093603;28;20035;-69